sensor_id;sensor_type;location;lat;lon;timestamp;P1;durP1;ratioP1;P2;durP2;ratioP2
69319;SDS011;56467;53.502;49.248;2022-07-10T00:01:09;5.28;;;3.50;;
69319;SDS011;56467;53.502;49.248;2022-07-10T00:03:35;5.05;;;3.60;;
69319;SDS011;56467;53.502;49.248;2022-07-10T00:06:01;4.53;;;3.60;;
69319;SDS011;56467;53.502;49.248;2022-07-10T00:08:27;4.47;;;3.67;;
69319;SDS011;56467;53.502;49.248;2022-07-10T00:10:52;6.93;;;4.03;;
69319;SDS011;56467;53.502;49.248;2022-07-10T00:13:18;3.95;;;3.17;;
69319;SDS011;56467;53.502;49.248;2022-07-10T00:15:44;4.63;;;3.78;;
69319;SDS011;56467;53.502;49.248;2022-07-10T00:18:09;5.20;;;3.60;;
69319;SDS011;56467;53.502;49.248;2022-07-10T00:20:35;4.45;;;3.65;;
69319;SDS011;56467;53.502;49.248;2022-07-10T00:23:02;4.45;;;3.90;;
69319;SDS011;56467;53.502;49.248;2022-07-10T00:25:28;4.68;;;3.95;;
69319;SDS011;56467;53.502;49.248;2022-07-10T00:27:54;4.72;;;3.63;;
69319;SDS011;56467;53.502;49.248;2022-07-10T00:30:19;4.13;;;3.53;;
69319;SDS011;56467;53.502;49.248;2022-07-10T00:32:45;4.47;;;3.50;;
69319;SDS011;56467;53.502;49.248;2022-07-10T00:35:11;5.60;;;3.72;;
69319;SDS011;56467;53.502;49.248;2022-07-10T00:37:36;4.93;;;3.70;;
69319;SDS011;56467;53.502;49.248;2022-07-10T00:40:03;4.10;;;3.40;;
69319;SDS011;56467;53.502;49.248;2022-07-10T00:42:29;4.22;;;3.63;;
69319;SDS011;56467;53.502;49.248;2022-07-10T00:44:56;4.70;;;3.63;;
69319;SDS011;56467;53.502;49.248;2022-07-10T00:47:22;5.75;;;3.72;;
69319;SDS011;56467;53.502;49.248;2022-07-10T00:49:48;4.72;;;3.70;;
69319;SDS011;56467;53.502;49.248;2022-07-10T00:52:14;5.45;;;4.05;;
69319;SDS011;56467;53.502;49.248;2022-07-10T00:54:42;6.07;;;4.10;;
69319;SDS011;56467;53.502;49.248;2022-07-10T00:57:10;4.55;;;4.10;;
69319;SDS011;56467;53.502;49.248;2022-07-10T00:59:37;4.82;;;4.07;;
69319;SDS011;56467;53.502;49.248;2022-07-10T01:02:03;5.53;;;4.00;;
69319;SDS011;56467;53.502;49.248;2022-07-10T01:04:30;5.25;;;4.10;;
69319;SDS011;56467;53.502;49.248;2022-07-10T01:06:56;5.20;;;4.38;;
69319;SDS011;56467;53.502;49.248;2022-07-10T01:09:23;5.07;;;4.05;;
69319;SDS011;56467;53.502;49.248;2022-07-10T01:11:48;5.20;;;3.90;;
69319;SDS011;56467;53.502;49.248;2022-07-10T01:14:15;4.78;;;4.10;;
69319;SDS011;56467;53.502;49.248;2022-07-10T01:16:42;5.05;;;4.22;;
69319;SDS011;56467;53.502;49.248;2022-07-10T01:19:07;5.43;;;4.60;;
69319;SDS011;56467;53.502;49.248;2022-07-10T01:21:34;4.97;;;4.32;;
69319;SDS011;56467;53.502;49.248;2022-07-10T01:24:05;4.93;;;4.40;;
69319;SDS011;56467;53.502;49.248;2022-07-10T01:26:33;5.68;;;4.60;;
69319;SDS011;56467;53.502;49.248;2022-07-10T01:29:00;4.75;;;4.25;;
69319;SDS011;56467;53.502;49.248;2022-07-10T01:31:28;5.45;;;4.47;;
69319;SDS011;56467;53.502;49.248;2022-07-10T01:33:54;5.90;;;4.68;;
69319;SDS011;56467;53.502;49.248;2022-07-10T01:36:21;7.25;;;5.20;;
69319;SDS011;56467;53.502;49.248;2022-07-10T01:38:47;5.30;;;4.57;;
69319;SDS011;56467;53.502;49.248;2022-07-10T01:41:16;6.20;;;5.05;;
69319;SDS011;56467;53.502;49.248;2022-07-10T01:43:42;5.72;;;4.88;;
69319;SDS011;56467;53.502;49.248;2022-07-10T01:46:10;6.38;;;5.30;;
69319;SDS011;56467;53.502;49.248;2022-07-10T01:48:37;5.95;;;4.75;;
69319;SDS011;56467;53.502;49.248;2022-07-10T01:51:04;5.85;;;4.93;;
69319;SDS011;56467;53.502;49.248;2022-07-10T01:53:30;5.70;;;5.00;;
69319;SDS011;56467;53.502;49.248;2022-07-10T01:55:56;6.45;;;5.18;;
69319;SDS011;56467;53.502;49.248;2022-07-10T01:58:23;6.28;;;5.00;;
69319;SDS011;56467;53.502;49.248;2022-07-10T02:00:48;6.38;;;5.20;;
69319;SDS011;56467;53.502;49.248;2022-07-10T02:03:14;6.70;;;5.18;;
69319;SDS011;56467;53.502;49.248;2022-07-10T02:05:58;6.38;;;4.97;;
69319;SDS011;56467;53.502;49.248;2022-07-10T02:08:24;5.50;;;4.85;;
69319;SDS011;56467;53.502;49.248;2022-07-10T02:10:50;6.57;;;5.10;;
69319;SDS011;56467;53.502;49.248;2022-07-10T02:13:16;7.38;;;4.90;;
69319;SDS011;56467;53.502;49.248;2022-07-10T02:15:45;5.25;;;4.25;;
69319;SDS011;56467;53.502;49.248;2022-07-10T02:18:12;5.82;;;4.22;;
69319;SDS011;56467;53.502;49.248;2022-07-10T02:20:38;5.57;;;4.50;;
69319;SDS011;56467;53.502;49.248;2022-07-10T02:23:03;5.25;;;4.40;;
69319;SDS011;56467;53.502;49.248;2022-07-10T02:25:31;7.10;;;4.40;;
69319;SDS011;56467;53.502;49.248;2022-07-10T02:27:57;6.50;;;4.40;;
69319;SDS011;56467;53.502;49.248;2022-07-10T02:30:23;5.72;;;4.13;;
69319;SDS011;56467;53.502;49.248;2022-07-10T02:32:49;5.53;;;3.92;;
69319;SDS011;56467;53.502;49.248;2022-07-10T02:35:14;5.43;;;3.88;;
69319;SDS011;56467;53.502;49.248;2022-07-10T02:37:40;6.47;;;3.88;;
69319;SDS011;56467;53.502;49.248;2022-07-10T02:40:06;4.75;;;3.75;;
69319;SDS011;56467;53.502;49.248;2022-07-10T02:42:35;5.07;;;3.67;;
69319;SDS011;56467;53.502;49.248;2022-07-10T02:45:02;4.85;;;4.00;;
69319;SDS011;56467;53.502;49.248;2022-07-10T02:47:28;5.03;;;3.53;;
69319;SDS011;56467;53.502;49.248;2022-07-10T02:49:55;3.92;;;3.33;;
69319;SDS011;56467;53.502;49.248;2022-07-10T02:52:21;4.18;;;3.38;;
69319;SDS011;56467;53.502;49.248;2022-07-10T02:54:46;4.47;;;3.20;;
69319;SDS011;56467;53.502;49.248;2022-07-10T02:57:12;4.18;;;3.17;;
69319;SDS011;56467;53.502;49.248;2022-07-10T02:59:38;4.15;;;3.13;;
69319;SDS011;56467;53.502;49.248;2022-07-10T03:02:04;4.45;;;3.10;;
69319;SDS011;56467;53.502;49.248;2022-07-10T03:04:30;5.13;;;3.10;;
69319;SDS011;56467;53.502;49.248;2022-07-10T03:06:55;4.38;;;3.10;;
69319;SDS011;56467;53.502;49.248;2022-07-10T03:09:21;4.22;;;2.75;;
69319;SDS011;56467;53.502;49.248;2022-07-10T03:11:47;5.38;;;3.20;;
69319;SDS011;56467;53.502;49.248;2022-07-10T03:14:12;3.67;;;2.70;;
69319;SDS011;56467;53.502;49.248;2022-07-10T03:16:38;3.95;;;2.65;;
69319;SDS011;56467;53.502;49.248;2022-07-10T03:19:04;3.45;;;2.65;;
69319;SDS011;56467;53.502;49.248;2022-07-10T03:21:30;4.43;;;2.83;;
69319;SDS011;56467;53.502;49.248;2022-07-10T03:23:56;4.05;;;2.72;;
69319;SDS011;56467;53.502;49.248;2022-07-10T03:26:22;3.53;;;2.53;;
69319;SDS011;56467;53.502;49.248;2022-07-10T03:28:47;3.70;;;2.80;;
69319;SDS011;56467;53.502;49.248;2022-07-10T03:31:13;3.85;;;2.60;;
69319;SDS011;56467;53.502;49.248;2022-07-10T03:33:39;3.42;;;2.47;;
69319;SDS011;56467;53.502;49.248;2022-07-10T03:36:05;3.70;;;2.70;;
69319;SDS011;56467;53.502;49.248;2022-07-10T03:38:31;3.55;;;2.30;;
69319;SDS011;56467;53.502;49.248;2022-07-10T03:40:57;3.13;;;2.40;;
69319;SDS011;56467;53.502;49.248;2022-07-10T03:43:23;3.25;;;2.20;;
69319;SDS011;56467;53.502;49.248;2022-07-10T03:45:49;2.10;;;1.90;;
69319;SDS011;56467;53.502;49.248;2022-07-10T03:48:16;3.00;;;2.20;;
69319;SDS011;56467;53.502;49.248;2022-07-10T03:50:42;3.25;;;2.25;;
69319;SDS011;56467;53.502;49.248;2022-07-10T03:53:08;3.15;;;2.35;;
69319;SDS011;56467;53.502;49.248;2022-07-10T03:55:34;3.70;;;2.30;;
69319;SDS011;56467;53.502;49.248;2022-07-10T03:58:00;4.10;;;2.40;;
69319;SDS011;56467;53.502;49.248;2022-07-10T04:00:29;3.38;;;2.30;;
69319;SDS011;56467;53.502;49.248;2022-07-10T04:02:59;4.13;;;2.10;;
69319;SDS011;56467;53.502;49.248;2022-07-10T04:05:29;3.78;;;2.10;;
69319;SDS011;56467;53.502;49.248;2022-07-10T04:07:55;3.50;;;2.17;;
69319;SDS011;56467;53.502;49.248;2022-07-10T04:10:22;3.40;;;2.28;;
69319;SDS011;56467;53.502;49.248;2022-07-10T04:12:49;4.30;;;2.10;;
69319;SDS011;56467;53.502;49.248;2022-07-10T04:15:15;5.88;;;2.13;;
69319;SDS011;56467;53.502;49.248;2022-07-10T04:17:41;4.57;;;2.35;;
69319;SDS011;56467;53.502;49.248;2022-07-10T04:20:07;3.67;;;2.08;;
69319;SDS011;56467;53.502;49.248;2022-07-10T04:22:34;5.03;;;2.20;;
69319;SDS011;56467;53.502;49.248;2022-07-10T04:25:00;4.22;;;2.28;;
69319;SDS011;56467;53.502;49.248;2022-07-10T04:27:26;4.00;;;2.05;;
69319;SDS011;56467;53.502;49.248;2022-07-10T04:29:52;5.63;;;2.42;;
69319;SDS011;56467;53.502;49.248;2022-07-10T04:32:18;5.10;;;2.20;;
69319;SDS011;56467;53.502;49.248;2022-07-10T04:34:44;4.30;;;2.33;;
69319;SDS011;56467;53.502;49.248;2022-07-10T04:37:10;4.82;;;2.25;;
69319;SDS011;56467;53.502;49.248;2022-07-10T04:39:36;5.50;;;2.50;;
69319;SDS011;56467;53.502;49.248;2022-07-10T04:42:05;4.90;;;2.10;;
69319;SDS011;56467;53.502;49.248;2022-07-10T04:44:32;3.83;;;1.92;;
69319;SDS011;56467;53.502;49.248;2022-07-10T04:46:58;5.30;;;2.42;;
69319;SDS011;56467;53.502;49.248;2022-07-10T04:49:24;4.18;;;1.90;;
69319;SDS011;56467;53.502;49.248;2022-07-10T04:51:50;5.13;;;2.17;;
69319;SDS011;56467;53.502;49.248;2022-07-10T04:54:16;5.47;;;2.30;;
69319;SDS011;56467;53.502;49.248;2022-07-10T04:56:41;4.55;;;2.00;;
69319;SDS011;56467;53.502;49.248;2022-07-10T04:59:07;4.10;;;2.00;;
69319;SDS011;56467;53.502;49.248;2022-07-10T05:01:34;4.82;;;1.95;;
69319;SDS011;56467;53.502;49.248;2022-07-10T05:04:00;4.95;;;2.28;;
69319;SDS011;56467;53.502;49.248;2022-07-10T05:06:26;2.97;;;1.85;;
69319;SDS011;56467;53.502;49.248;2022-07-10T05:08:52;3.50;;;1.98;;
69319;SDS011;56467;53.502;49.248;2022-07-10T05:11:18;3.65;;;1.75;;
69319;SDS011;56467;53.502;49.248;2022-07-10T05:13:44;2.95;;;1.65;;
69319;SDS011;56467;53.502;49.248;2022-07-10T05:16:13;3.30;;;1.60;;
69319;SDS011;56467;53.502;49.248;2022-07-10T05:18:41;3.97;;;1.73;;
69319;SDS011;56467;53.502;49.248;2022-07-10T05:21:07;2.70;;;1.60;;
69319;SDS011;56467;53.502;49.248;2022-07-10T05:23:33;3.30;;;1.73;;
69319;SDS011;56467;53.502;49.248;2022-07-10T05:26:00;2.53;;;1.50;;
69319;SDS011;56467;53.502;49.248;2022-07-10T05:28:25;4.18;;;1.80;;
69319;SDS011;56467;53.502;49.248;2022-07-10T05:30:51;2.40;;;1.65;;
69319;SDS011;56467;53.502;49.248;2022-07-10T05:33:17;3.78;;;1.67;;
69319;SDS011;56467;53.502;49.248;2022-07-10T05:35:43;2.25;;;1.40;;
69319;SDS011;56467;53.502;49.248;2022-07-10T05:38:10;2.47;;;1.60;;
69319;SDS011;56467;53.502;49.248;2022-07-10T05:40:35;2.42;;;1.60;;
69319;SDS011;56467;53.502;49.248;2022-07-10T05:43:01;2.35;;;1.58;;
69319;SDS011;56467;53.502;49.248;2022-07-10T05:45:27;2.47;;;1.50;;
69319;SDS011;56467;53.502;49.248;2022-07-10T05:47:53;2.08;;;1.40;;
69319;SDS011;56467;53.502;49.248;2022-07-10T05:50:18;2.50;;;1.60;;
69319;SDS011;56467;53.502;49.248;2022-07-10T05:52:44;2.40;;;1.45;;
69319;SDS011;56467;53.502;49.248;2022-07-10T05:55:10;3.00;;;1.30;;
69319;SDS011;56467;53.502;49.248;2022-07-10T05:57:36;2.47;;;1.60;;
69319;SDS011;56467;53.502;49.248;2022-07-10T06:00:03;1.60;;;1.30;;
69319;SDS011;56467;53.502;49.248;2022-07-10T06:02:30;2.58;;;1.42;;
69319;SDS011;56467;53.502;49.248;2022-07-10T06:04:56;3.42;;;1.40;;
69319;SDS011;56467;53.502;49.248;2022-07-10T06:07:21;1.45;;;1.30;;
69319;SDS011;56467;53.502;49.248;2022-07-10T06:09:48;1.70;;;1.40;;
69319;SDS011;56467;53.502;49.248;2022-07-10T06:12:13;1.52;;;1.20;;
69319;SDS011;56467;53.502;49.248;2022-07-10T06:14:41;2.40;;;1.33;;
69319;SDS011;56467;53.502;49.248;2022-07-10T06:17:07;1.50;;;1.35;;
69319;SDS011;56467;53.502;49.248;2022-07-10T06:19:33;1.83;;;1.40;;
69319;SDS011;56467;53.502;49.248;2022-07-10T06:21:59;1.92;;;1.13;;
69319;SDS011;56467;53.502;49.248;2022-07-10T06:24:43;2.22;;;1.38;;
69319;SDS011;56467;53.502;49.248;2022-07-10T06:27:09;1.70;;;1.30;;
69319;SDS011;56467;53.502;49.248;2022-07-10T06:29:35;1.30;;;1.10;;
69319;SDS011;56467;53.502;49.248;2022-07-10T06:32:01;1.20;;;1.10;;
69319;SDS011;56467;53.502;49.248;2022-07-10T06:34:26;1.77;;;1.25;;
69319;SDS011;56467;53.502;49.248;2022-07-10T06:36:52;1.20;;;1.10;;
69319;SDS011;56467;53.502;49.248;2022-07-10T06:39:18;1.52;;;1.02;;
69319;SDS011;56467;53.502;49.248;2022-07-10T06:41:44;1.45;;;1.17;;
69319;SDS011;56467;53.502;49.248;2022-07-10T06:44:10;1.27;;;1.08;;
69319;SDS011;56467;53.502;49.248;2022-07-10T06:46:36;1.17;;;1.00;;
69319;SDS011;56467;53.502;49.248;2022-07-10T06:49:01;1.10;;;0.93;;
69319;SDS011;56467;53.502;49.248;2022-07-10T06:51:27;1.40;;;1.30;;
69319;SDS011;56467;53.502;49.248;2022-07-10T06:53:55;1.15;;;1.05;;
69319;SDS011;56467;53.502;49.248;2022-07-10T06:56:22;0.95;;;0.90;;
69319;SDS011;56467;53.502;49.248;2022-07-10T06:58:48;0.90;;;0.90;;
69319;SDS011;56467;53.502;49.248;2022-07-10T07:01:13;1.38;;;1.00;;
69319;SDS011;56467;53.502;49.248;2022-07-10T07:03:39;1.10;;;1.00;;
69319;SDS011;56467;53.502;49.248;2022-07-10T07:06:05;1.58;;;1.10;;
69319;SDS011;56467;53.502;49.248;2022-07-10T07:08:31;1.17;;;1.08;;
69319;SDS011;56467;53.502;49.248;2022-07-10T07:10:56;1.10;;;0.90;;
69319;SDS011;56467;53.502;49.248;2022-07-10T07:13:22;1.10;;;0.93;;
69319;SDS011;56467;53.502;49.248;2022-07-10T07:15:48;1.10;;;1.00;;
69319;SDS011;56467;53.502;49.248;2022-07-10T07:18:25;1.20;;;1.10;;
69319;SDS011;56467;53.502;49.248;2022-07-10T07:20:58;1.25;;;0.93;;
69319;SDS011;56467;53.502;49.248;2022-07-10T07:23:42;1.02;;;0.90;;
69319;SDS011;56467;53.502;49.248;2022-07-10T07:26:08;1.10;;;0.95;;
69319;SDS011;56467;53.502;49.248;2022-07-10T07:28:34;1.50;;;1.02;;
69319;SDS011;56467;53.502;49.248;2022-07-10T07:30:59;1.02;;;0.93;;
69319;SDS011;56467;53.502;49.248;2022-07-10T07:33:25;1.05;;;0.95;;
69319;SDS011;56467;53.502;49.248;2022-07-10T07:35:51;0.80;;;0.75;;
69319;SDS011;56467;53.502;49.248;2022-07-10T07:38:17;1.05;;;0.98;;
69319;SDS011;56467;53.502;49.248;2022-07-10T07:40:43;1.05;;;0.93;;
69319;SDS011;56467;53.502;49.248;2022-07-10T07:43:09;1.13;;;0.90;;
69319;SDS011;56467;53.502;49.248;2022-07-10T07:45:35;1.08;;;1.05;;
69319;SDS011;56467;53.502;49.248;2022-07-10T07:48:01;0.80;;;0.80;;
69319;SDS011;56467;53.502;49.248;2022-07-10T07:50:28;0.80;;;0.80;;
69319;SDS011;56467;53.502;49.248;2022-07-10T07:52:57;1.02;;;0.95;;
69319;SDS011;56467;53.502;49.248;2022-07-10T07:55:23;1.00;;;0.90;;
69319;SDS011;56467;53.502;49.248;2022-07-10T07:57:52;0.88;;;0.88;;
69319;SDS011;56467;53.502;49.248;2022-07-10T08:00:20;1.00;;;0.90;;
69319;SDS011;56467;53.502;49.248;2022-07-10T08:02:48;0.88;;;0.80;;
69319;SDS011;56467;53.502;49.248;2022-07-10T08:05:15;1.05;;;0.88;;
69319;SDS011;56467;53.502;49.248;2022-07-10T08:07:43;1.10;;;0.90;;
69319;SDS011;56467;53.502;49.248;2022-07-10T08:10:11;0.90;;;0.90;;
69319;SDS011;56467;53.502;49.248;2022-07-10T08:12:39;1.10;;;1.00;;
69319;SDS011;56467;53.502;49.248;2022-07-10T08:15:09;1.40;;;1.00;;
69319;SDS011;56467;53.502;49.248;2022-07-10T08:17:36;0.88;;;0.85;;
69319;SDS011;56467;53.502;49.248;2022-07-10T08:20:03;0.80;;;0.80;;
69319;SDS011;56467;53.502;49.248;2022-07-10T08:22:30;0.85;;;0.85;;
69319;SDS011;56467;53.502;49.248;2022-07-10T08:24:57;0.70;;;0.70;;
69319;SDS011;56467;53.502;49.248;2022-07-10T08:27:24;1.33;;;0.90;;
69319;SDS011;56467;53.502;49.248;2022-07-10T08:29:50;0.70;;;0.70;;
69319;SDS011;56467;53.502;49.248;2022-07-10T08:32:15;0.80;;;0.80;;
69319;SDS011;56467;53.502;49.248;2022-07-10T08:34:41;0.90;;;0.90;;
69319;SDS011;56467;53.502;49.248;2022-07-10T08:37:08;1.10;;;1.02;;
69319;SDS011;56467;53.502;49.248;2022-07-10T08:39:33;0.80;;;0.80;;
69319;SDS011;56467;53.502;49.248;2022-07-10T08:41:59;1.30;;;0.90;;
69319;SDS011;56467;53.502;49.248;2022-07-10T08:44:26;0.80;;;0.80;;
69319;SDS011;56467;53.502;49.248;2022-07-10T08:46:54;3.05;;;1.00;;
69319;SDS011;56467;53.502;49.248;2022-07-10T08:49:20;0.77;;;0.77;;
69319;SDS011;56467;53.502;49.248;2022-07-10T08:52:00;1.15;;;1.05;;
69319;SDS011;56467;53.502;49.248;2022-07-10T08:54:28;1.20;;;0.80;;
69319;SDS011;56467;53.502;49.248;2022-07-10T08:56:59;0.85;;;0.85;;
69319;SDS011;56467;53.502;49.248;2022-07-10T08:59:27;0.80;;;0.80;;
69319;SDS011;56467;53.502;49.248;2022-07-10T09:01:53;1.00;;;0.90;;
69319;SDS011;56467;53.502;49.248;2022-07-10T09:04:23;1.27;;;0.90;;
69319;SDS011;56467;53.502;49.248;2022-07-10T09:06:50;0.85;;;0.85;;
69319;SDS011;56467;53.502;49.248;2022-07-10T09:09:17;0.77;;;0.70;;
69319;SDS011;56467;53.502;49.248;2022-07-10T09:11:44;0.95;;;0.90;;
69319;SDS011;56467;53.502;49.248;2022-07-10T09:14:10;0.90;;;0.80;;
69319;SDS011;56467;53.502;49.248;2022-07-10T09:16:39;0.70;;;0.70;;
69319;SDS011;56467;53.502;49.248;2022-07-10T09:19:29;0.80;;;0.70;;
69319;SDS011;56467;53.502;49.248;2022-07-10T09:21:55;0.95;;;0.75;;
69319;SDS011;56467;53.502;49.248;2022-07-10T09:27:13;0.70;;;0.70;;
69319;SDS011;56467;53.502;49.248;2022-07-10T09:29:50;0.73;;;0.73;;
69319;SDS011;56467;53.502;49.248;2022-07-10T09:32:20;0.77;;;0.73;;
69319;SDS011;56467;53.502;49.248;2022-07-10T09:34:50;0.82;;;0.82;;
69319;SDS011;56467;53.502;49.248;2022-07-10T09:37:36;0.90;;;0.80;;
69319;SDS011;56467;53.502;49.248;2022-07-10T09:40:04;0.70;;;0.70;;
69319;SDS011;56467;53.502;49.248;2022-07-10T09:42:35;0.90;;;0.80;;
69319;SDS011;56467;53.502;49.248;2022-07-10T09:47:37;1.08;;;0.70;;
69319;SDS011;56467;53.502;49.248;2022-07-10T09:50:04;1.38;;;0.77;;
69319;SDS011;56467;53.502;49.248;2022-07-10T09:52:44;0.70;;;0.70;;
69319;SDS011;56467;53.502;49.248;2022-07-10T09:55:11;1.02;;;0.60;;
69319;SDS011;56467;53.502;49.248;2022-07-10T09:57:39;0.73;;;0.70;;
69319;SDS011;56467;53.502;49.248;2022-07-10T10:00:09;0.80;;;0.80;;
69319;SDS011;56467;53.502;49.248;2022-07-10T10:02:36;0.82;;;0.55;;
69319;SDS011;56467;53.502;49.248;2022-07-10T10:05:04;0.65;;;0.60;;
69319;SDS011;56467;53.502;49.248;2022-07-10T10:07:31;0.60;;;0.60;;
69319;SDS011;56467;53.502;49.248;2022-07-10T10:10:01;1.05;;;0.63;;
69319;SDS011;56467;53.502;49.248;2022-07-10T10:12:36;0.65;;;0.65;;
69319;SDS011;56467;53.502;49.248;2022-07-10T10:15:09;0.50;;;0.50;;
69319;SDS011;56467;53.502;49.248;2022-07-10T10:17:36;0.45;;;0.45;;
69319;SDS011;56467;53.502;49.248;2022-07-10T10:20:05;0.57;;;0.57;;
69319;SDS011;56467;53.502;49.248;2022-07-10T10:22:52;0.57;;;0.52;;
69319;SDS011;56467;53.502;49.248;2022-07-10T10:25:20;0.77;;;0.77;;
69319;SDS011;56467;53.502;49.248;2022-07-10T10:27:50;0.50;;;0.50;;
69319;SDS011;56467;53.502;49.248;2022-07-10T10:30:16;0.60;;;0.60;;
69319;SDS011;56467;53.502;49.248;2022-07-10T10:32:42;0.60;;;0.60;;
69319;SDS011;56467;53.502;49.248;2022-07-10T10:35:08;0.50;;;0.50;;
69319;SDS011;56467;53.502;49.248;2022-07-10T10:37:40;0.60;;;0.60;;
69319;SDS011;56467;53.502;49.248;2022-07-10T10:40:35;0.57;;;0.50;;
69319;SDS011;56467;53.502;49.248;2022-07-10T10:43:15;0.52;;;0.52;;
69319;SDS011;56467;53.502;49.248;2022-07-10T10:45:42;0.40;;;0.40;;
69319;SDS011;56467;53.502;49.248;2022-07-10T10:48:10;0.77;;;0.50;;
69319;SDS011;56467;53.502;49.248;2022-07-10T10:53:23;0.70;;;0.60;;
69319;SDS011;56467;53.502;49.248;2022-07-10T10:56:33;0.60;;;0.60;;
69319;SDS011;56467;53.502;49.248;2022-07-10T10:58:41;1.58;;;0.60;;
69319;SDS011;56467;53.502;49.248;2022-07-10T11:09:21;0.60;;;0.60;;
69319;SDS011;56467;53.502;49.248;2022-07-10T11:14:30;0.40;;;0.40;;
69319;SDS011;56467;53.502;49.248;2022-07-10T11:16:57;0.50;;;0.50;;
69319;SDS011;56467;53.502;49.248;2022-07-10T11:19:24;0.70;;;0.40;;
69319;SDS011;56467;53.502;49.248;2022-07-10T11:22:18;0.63;;;0.50;;
69319;SDS011;56467;53.502;49.248;2022-07-10T11:27:55;1.00;;;1.00;;
69319;SDS011;56467;53.502;49.248;2022-07-10T11:30:24;3.20;;;1.17;;
69319;SDS011;56467;53.502;49.248;2022-07-10T11:32:49;1.67;;;1.23;;
69319;SDS011;56467;53.502;49.248;2022-07-10T11:35:16;1.98;;;1.40;;
69319;SDS011;56467;53.502;49.248;2022-07-10T11:37:52;1.45;;;1.30;;
69319;SDS011;56467;53.502;49.248;2022-07-10T11:40:18;2.08;;;1.52;;
69319;SDS011;56467;53.502;49.248;2022-07-10T11:42:52;1.75;;;1.60;;
69319;SDS011;56467;53.502;49.248;2022-07-10T11:45:23;1.98;;;1.70;;
69319;SDS011;56467;53.502;49.248;2022-07-10T11:48:00;1.83;;;1.60;;
69319;SDS011;56467;53.502;49.248;2022-07-10T11:50:26;1.83;;;1.60;;
69319;SDS011;56467;53.502;49.248;2022-07-10T11:52:59;2.67;;;1.73;;
69319;SDS011;56467;53.502;49.248;2022-07-10T11:55:26;2.10;;;1.90;;
69319;SDS011;56467;53.502;49.248;2022-07-10T11:57:54;1.92;;;1.67;;
69319;SDS011;56467;53.502;49.248;2022-07-10T12:00:29;2.10;;;1.90;;
69319;SDS011;56467;53.502;49.248;2022-07-10T12:02:56;2.17;;;1.95;;
69319;SDS011;56467;53.502;49.248;2022-07-10T12:05:41;2.42;;;2.08;;
69319;SDS011;56467;53.502;49.248;2022-07-10T12:08:06;2.30;;;1.90;;
69319;SDS011;56467;53.502;49.248;2022-07-10T12:10:33;2.03;;;1.83;;
69319;SDS011;56467;53.502;49.248;2022-07-10T12:13:09;2.42;;;2.10;;
69319;SDS011;56467;53.502;49.248;2022-07-10T12:20:40;13.75;;;4.95;;
69319;SDS011;56467;53.502;49.248;2022-07-10T12:23:10;17.80;;;5.53;;
69319;SDS011;56467;53.502;49.248;2022-07-10T12:25:39;17.42;;;6.00;;
69319;SDS011;56467;53.502;49.248;2022-07-10T12:28:07;18.45;;;5.82;;
69319;SDS011;56467;53.502;49.248;2022-07-10T12:30:39;20.90;;;6.38;;
69319;SDS011;56467;53.502;49.248;2022-07-10T12:33:10;22.35;;;6.38;;
69319;SDS011;56467;53.502;49.248;2022-07-10T12:35:52;17.05;;;6.05;;
69319;SDS011;56467;53.502;49.248;2022-07-10T12:38:20;19.90;;;6.43;;
69319;SDS011;56467;53.502;49.248;2022-07-10T12:41:12;20.50;;;6.85;;
69319;SDS011;56467;53.502;49.248;2022-07-10T12:43:39;19.55;;;6.38;;
69319;SDS011;56467;53.502;49.248;2022-07-10T12:46:09;18.25;;;6.10;;
69319;SDS011;56467;53.502;49.248;2022-07-10T12:48:36;18.33;;;6.18;;
69319;SDS011;56467;53.502;49.248;2022-07-10T12:53:47;14.77;;;5.60;;
69319;SDS011;56467;53.502;49.248;2022-07-10T12:59:00;12.82;;;4.80;;
69319;SDS011;56467;53.502;49.248;2022-07-10T13:01:28;14.95;;;5.15;;
69319;SDS011;56467;53.502;49.248;2022-07-10T13:04:04;13.50;;;5.13;;
69319;SDS011;56467;53.502;49.248;2022-07-10T13:06:31;15.13;;;4.60;;
69319;SDS011;56467;53.502;49.248;2022-07-10T13:08:57;13.23;;;5.13;;
69319;SDS011;56467;53.502;49.248;2022-07-10T13:11:23;14.32;;;5.25;;
69319;SDS011;56467;53.502;49.248;2022-07-10T13:13:49;9.88;;;4.40;;
69319;SDS011;56467;53.502;49.248;2022-07-10T13:16:15;11.63;;;4.65;;
69319;SDS011;56467;53.502;49.248;2022-07-10T13:18:42;10.75;;;4.10;;
69319;SDS011;56467;53.502;49.248;2022-07-10T13:21:11;10.00;;;4.03;;
69319;SDS011;56467;53.502;49.248;2022-07-10T13:23:38;9.85;;;3.65;;
69319;SDS011;56467;53.502;49.248;2022-07-10T13:26:04;10.60;;;3.80;;
69319;SDS011;56467;53.502;49.248;2022-07-10T13:28:34;10.48;;;3.88;;
69319;SDS011;56467;53.502;49.248;2022-07-10T13:31:00;8.30;;;3.63;;
69319;SDS011;56467;53.502;49.248;2022-07-10T13:33:26;9.60;;;3.60;;
69319;SDS011;56467;53.502;49.248;2022-07-10T13:35:53;8.52;;;3.72;;
69319;SDS011;56467;53.502;49.248;2022-07-10T13:38:19;8.25;;;3.63;;
69319;SDS011;56467;53.502;49.248;2022-07-10T13:40:46;8.25;;;3.50;;
69319;SDS011;56467;53.502;49.248;2022-07-10T13:43:12;8.65;;;3.25;;
69319;SDS011;56467;53.502;49.248;2022-07-10T13:45:41;6.63;;;3.08;;
69319;SDS011;56467;53.502;49.248;2022-07-10T13:48:10;7.93;;;3.13;;
69319;SDS011;56467;53.502;49.248;2022-07-10T13:50:40;6.45;;;2.90;;
69319;SDS011;56467;53.502;49.248;2022-07-10T13:53:06;6.25;;;2.72;;
69319;SDS011;56467;53.502;49.248;2022-07-10T13:55:33;6.15;;;2.90;;
69319;SDS011;56467;53.502;49.248;2022-07-10T13:58:00;6.20;;;2.78;;
69319;SDS011;56467;53.502;49.248;2022-07-10T14:00:26;6.78;;;3.00;;
69319;SDS011;56467;53.502;49.248;2022-07-10T14:02:52;4.63;;;2.45;;
69319;SDS011;56467;53.502;49.248;2022-07-10T14:05:21;7.20;;;2.60;;
69319;SDS011;56467;53.502;49.248;2022-07-10T14:07:47;6.93;;;2.70;;
69319;SDS011;56467;53.502;49.248;2022-07-10T14:10:13;5.35;;;2.30;;
69319;SDS011;56467;53.502;49.248;2022-07-10T14:12:40;6.28;;;2.53;;
69319;SDS011;56467;53.502;49.248;2022-07-10T14:15:06;5.60;;;2.35;;
69319;SDS011;56467;53.502;49.248;2022-07-10T14:17:32;5.47;;;2.20;;
69319;SDS011;56467;53.502;49.248;2022-07-10T14:19:58;4.05;;;2.10;;
69319;SDS011;56467;53.502;49.248;2022-07-10T14:22:24;4.68;;;2.40;;
69319;SDS011;56467;53.502;49.248;2022-07-10T14:24:50;3.90;;;2.10;;
69319;SDS011;56467;53.502;49.248;2022-07-10T14:27:16;4.28;;;2.05;;
69319;SDS011;56467;53.502;49.248;2022-07-10T14:29:43;3.38;;;1.77;;
69319;SDS011;56467;53.502;49.248;2022-07-10T14:32:08;3.75;;;2.00;;
69319;SDS011;56467;53.502;49.248;2022-07-10T14:34:34;4.10;;;1.90;;
69319;SDS011;56467;53.502;49.248;2022-07-10T14:37:00;4.10;;;1.98;;
69319;SDS011;56467;53.502;49.248;2022-07-10T14:39:26;3.92;;;2.10;;
69319;SDS011;56467;53.502;49.248;2022-07-10T14:41:52;4.05;;;2.00;;
69319;SDS011;56467;53.502;49.248;2022-07-10T14:44:18;3.45;;;1.98;;
69319;SDS011;56467;53.502;49.248;2022-07-10T14:46:43;5.88;;;2.33;;
69319;SDS011;56467;53.502;49.248;2022-07-10T14:49:09;3.15;;;1.80;;
69319;SDS011;56467;53.502;49.248;2022-07-10T14:51:35;3.65;;;1.80;;
69319;SDS011;56467;53.502;49.248;2022-07-10T14:54:01;3.60;;;1.70;;
69319;SDS011;56467;53.502;49.248;2022-07-10T14:56:27;3.42;;;1.90;;
69319;SDS011;56467;53.502;49.248;2022-07-10T14:58:54;3.72;;;1.90;;
69319;SDS011;56467;53.502;49.248;2022-07-10T15:01:20;3.42;;;1.88;;
69319;SDS011;56467;53.502;49.248;2022-07-10T15:03:46;3.45;;;1.67;;
69319;SDS011;56467;53.502;49.248;2022-07-10T15:06:12;3.47;;;1.80;;
69319;SDS011;56467;53.502;49.248;2022-07-10T15:08:38;4.13;;;1.88;;